sensor_id;sensor_type;location;lat;lon;timestamp;temperature;humidity
20881;DHT22;10600;53.096;8.802;2023-01-28T00:00:23;2.10;99.90
20881;DHT22;10600;53.096;8.802;2023-01-28T00:01:24;2.10;99.90
20881;DHT22;10600;53.096;8.802;2023-01-28T00:02:25;2.10;99.90
20881;DHT22;10600;53.096;8.802;2023-01-28T00:03:25;2.10;99.90
20881;DHT22;10600;53.096;8.802;2023-01-28T00:04:26;2.10;99.90
20881;DHT22;10600;53.096;8.802;2023-01-28T00:05:27;2.10;99.90
20881;DHT22;10600;53.096;8.802;2023-01-28T00:06:29;2.10;99.90
20881;DHT22;10600;53.096;8.802;2023-01-28T00:07:29;2.10;99.90
20881;DHT22;10600;53.096;8.802;2023-01-28T00:08:31;2.10;99.90
20881;DHT22;10600;53.096;8.802;2023-01-28T00:09:33;2.10;99.90
20881;DHT22;10600;53.096;8.802;2023-01-28T00:10:33;2.10;99.90
20881;DHT22;10600;53.096;8.802;2023-01-28T00:11:34;2.10;99.90
20881;DHT22;10600;53.096;8.802;2023-01-28T00:12:34;2.10;99.90
20881;DHT22;10600;53.096;8.802;2023-01-28T00:13:35;2.10;99.90
20881;DHT22;10600;53.096;8.802;2023-01-28T00:14:36;2.10;99.90
20881;DHT22;10600;53.096;8.802;2023-01-28T00:15:37;2.10;99.90
20881;DHT22;10600;53.096;8.802;2023-01-28T00:16:37;2.10;99.90
20881;DHT22;10600;53.096;8.802;2023-01-28T00:17:38;2.10;99.90
20881;DHT22;10600;53.096;8.802;2023-01-28T00:18:38;2.10;99.90
20881;DHT22;10600;53.096;8.802;2023-01-28T00:19:40;2.10;99.90
20881;DHT22;10600;53.096;8.802;2023-01-28T00:20:41;2.10;99.90
20881;DHT22;10600;53.096;8.802;2023-01-28T00:21:41;2.10;99.90
20881;DHT22;10600;53.096;8.802;2023-01-28T00:22:48;2.10;99.90
20881;DHT22;10600;53.096;8.802;2023-01-28T00:23:53;2.10;99.90
20881;DHT22;10600;53.096;8.802;2023-01-28T00:24:54;2.10;99.90
20881;DHT22;10600;53.096;8.802;2023-01-28T00:26:00;2.10;99.90
20881;DHT22;10600;53.096;8.802;2023-01-28T00:27:00;2.10;99.90
20881;DHT22;10600;53.096;8.802;2023-01-28T00:28:01;2.10;99.90
20881;DHT22;10600;53.096;8.802;2023-01-28T00:29:02;2.10;99.90
20881;DHT22;10600;53.096;8.802;2023-01-28T00:30:03;2.10;99.90
20881;DHT22;10600;53.096;8.802;2023-01-28T00:32:14;2.10;99.90
20881;DHT22;10600;53.096;8.802;2023-01-28T00:33:14;2.00;99.90
20881;DHT22;10600;53.096;8.802;2023-01-28T00:34:15;2.00;99.90
20881;DHT22;10600;53.096;8.802;2023-01-28T00:35:16;2.00;99.90
20881;DHT22;10600;53.096;8.802;2023-01-28T00:36:17;2.00;99.90
20881;DHT22;10600;53.096;8.802;2023-01-28T00:37:18;2.00;99.90
20881;DHT22;10600;53.096;8.802;2023-01-28T00:38:19;2.00;99.90
20881;DHT22;10600;53.096;8.802;2023-01-28T00:39:19;2.00;99.90
20881;DHT22;10600;53.096;8.802;2023-01-28T00:40:20;2.00;99.90
20881;DHT22;10600;53.096;8.802;2023-01-28T00:41:23;2.00;99.90
20881;DHT22;10600;53.096;8.802;2023-01-28T00:42:23;2.00;99.90
20881;DHT22;10600;53.096;8.802;2023-01-28T00:43:24;2.00;99.90
20881;DHT22;10600;53.096;8.802;2023-01-28T00:44:25;2.00;99.90
20881;DHT22;10600;53.096;8.802;2023-01-28T00:45:25;2.00;99.90
20881;DHT22;10600;53.096;8.802;2023-01-28T00:46:26;2.00;99.90
20881;DHT22;10600;53.096;8.802;2023-01-28T00:47:27;2.00;99.90
20881;DHT22;10600;53.096;8.802;2023-01-28T00:48:27;2.00;99.90
20881;DHT22;10600;53.096;8.802;2023-01-28T00:49:28;2.00;99.90
20881;DHT22;10600;53.096;8.802;2023-01-28T00:50:29;2.00;99.90
20881;DHT22;10600;53.096;8.802;2023-01-28T00:51:30;2.00;99.90
20881;DHT22;10600;53.096;8.802;2023-01-28T00:52:31;2.00;99.90
20881;DHT22;10600;53.096;8.802;2023-01-28T00:53:32;2.00;99.90
20881;DHT22;10600;53.096;8.802;2023-01-28T00:54:34;2.00;99.90
20881;DHT22;10600;53.096;8.802;2023-01-28T00:55:35;2.00;99.90
20881;DHT22;10600;53.096;8.802;2023-01-28T00:56:37;2.00;99.90
20881;DHT22;10600;53.096;8.802;2023-01-28T00:57:38;2.00;99.90
20881;DHT22;10600;53.096;8.802;2023-01-28T00:58:38;2.00;99.90
20881;DHT22;10600;53.096;8.802;2023-01-28T00:59:39;2.00;99.90
20881;DHT22;10600;53.096;8.802;2023-01-28T01:00:40;2.00;99.90
20881;DHT22;10600;53.096;8.802;2023-01-28T01:01:40;2.00;99.90
20881;DHT22;10600;53.096;8.802;2023-01-28T01:02:41;2.00;99.90
20881;DHT22;10600;53.096;8.802;2023-01-28T01:03:42;2.00;99.90
20881;DHT22;10600;53.096;8.802;2023-01-28T01:04:43;2.00;99.90
20881;DHT22;10600;53.096;8.802;2023-01-28T01:05:56;2.00;99.90
20881;DHT22;10600;53.096;8.802;2023-01-28T01:06:57;2.00;99.90
20881;DHT22;10600;53.096;8.802;2023-01-28T01:07:57;2.00;99.90
20881;DHT22;10600;53.096;8.802;2023-01-28T01:08:58;2.00;99.90
20881;DHT22;10600;53.096;8.802;2023-01-28T01:10:00;2.00;99.90
20881;DHT22;10600;53.096;8.802;2023-01-28T01:11:02;2.00;99.90
20881;DHT22;10600;53.096;8.802;2023-01-28T01:12:03;2.00;99.90
20881;DHT22;10600;53.096;8.802;2023-01-28T01:13:07;2.00;99.90
20881;DHT22;10600;53.096;8.802;2023-01-28T01:14:09;1.90;99.90
20881;DHT22;10600;53.096;8.802;2023-01-28T01:15:10;1.90;99.90
20881;DHT22;10600;53.096;8.802;2023-01-28T01:16:14;1.90;99.90
20881;DHT22;10600;53.096;8.802;2023-01-28T01:17:16;1.90;99.90
20881;DHT22;10600;53.096;8.802;2023-01-28T01:18:16;1.90;99.90
20881;DHT22;10600;53.096;8.802;2023-01-28T01:19:18;1.90;99.90
20881;DHT22;10600;53.096;8.802;2023-01-28T01:20:21;1.90;99.90
20881;DHT22;10600;53.096;8.802;2023-01-28T01:21:24;1.90;99.90
20881;DHT22;10600;53.096;8.802;2023-01-28T01:22:25;1.90;99.90
20881;DHT22;10600;53.096;8.802;2023-01-28T01:23:27;1.90;99.90
20881;DHT22;10600;53.096;8.802;2023-01-28T01:24:28;1.90;99.90
20881;DHT22;10600;53.096;8.802;2023-01-28T01:25:29;1.90;99.90
20881;DHT22;10600;53.096;8.802;2023-01-28T01:26:29;1.90;99.90
20881;DHT22;10600;53.096;8.802;2023-01-28T01:27:31;1.90;99.90
20881;DHT22;10600;53.096;8.802;2023-01-28T01:28:32;1.90;99.90
20881;DHT22;10600;53.096;8.802;2023-01-28T01:29:32;1.90;99.90
20881;DHT22;10600;53.096;8.802;2023-01-28T01:30:33;1.90;99.90
20881;DHT22;10600;53.096;8.802;2023-01-28T01:31:34;1.90;99.90
20881;DHT22;10600;53.096;8.802;2023-01-28T01:32:35;1.90;99.90
20881;DHT22;10600;53.096;8.802;2023-01-28T01:33:36;2.00;99.90
20881;DHT22;10600;53.096;8.802;2023-01-28T01:34:36;1.90;99.90
20881;DHT22;10600;53.096;8.802;2023-01-28T01:35:37;1.90;99.90
20881;DHT22;10600;53.096;8.802;2023-01-28T01:36:38;2.00;99.90
20881;DHT22;10600;53.096;8.802;2023-01-28T01:37:38;1.90;99.90
20881;DHT22;10600;53.096;8.802;2023-01-28T01:38:39;1.90;99.90
20881;DHT22;10600;53.096;8.802;2023-01-28T01:39:40;1.90;99.90
20881;DHT22;10600;53.096;8.802;2023-01-28T01:40:41;1.90;99.90
20881;DHT22;10600;53.096;8.802;2023-01-28T01:41:41;1.90;99.90
20881;DHT22;10600;53.096;8.802;2023-01-28T01:42:42;1.90;99.90
20881;DHT22;10600;53.096;8.802;2023-01-28T01:45:31;1.90;99.90
20881;DHT22;10600;53.096;8.802;2023-01-28T01:46:46;1.90;99.90
20881;DHT22;10600;53.096;8.802;2023-01-28T01:47:56;1.90;99.90
20881;DHT22;10600;53.096;8.802;2023-01-28T01:49:16;1.90;99.90
20881;DHT22;10600;53.096;8.802;2023-01-28T01:50:41;1.90;99.90
20881;DHT22;10600;53.096;8.802;2023-01-28T01:51:43;1.90;99.90
20881;DHT22;10600;53.096;8.802;2023-01-28T01:52:45;1.90;99.90
20881;DHT22;10600;53.096;8.802;2023-01-28T01:53:49;1.90;99.90
20881;DHT22;10600;53.096;8.802;2023-01-28T01:54:53;1.90;99.90
20881;DHT22;10600;53.096;8.802;2023-01-28T01:55:59;1.90;99.90
20881;DHT22;10600;53.096;8.802;2023-01-28T01:57:02;1.90;99.90
20881;DHT22;10600;53.096;8.802;2023-01-28T01:58:07;1.90;99.90
20881;DHT22;10600;53.096;8.802;2023-01-28T01:59:13;1.90;99.90
20881;DHT22;10600;53.096;8.802;2023-01-28T02:00:15;1.90;99.90
20881;DHT22;10600;53.096;8.802;2023-01-28T02:01:19;1.90;99.90
20881;DHT22;10600;53.096;8.802;2023-01-28T02:02:20;1.90;99.90
20881;DHT22;10600;53.096;8.802;2023-01-28T02:03:26;1.90;99.90
20881;DHT22;10600;53.096;8.802;2023-01-28T02:04:31;1.90;99.90
20881;DHT22;10600;53.096;8.802;2023-01-28T02:05:33;1.90;99.90
20881;DHT22;10600;53.096;8.802;2023-01-28T02:06:34;1.90;99.90
20881;DHT22;10600;53.096;8.802;2023-01-28T02:07:36;1.90;99.90
20881;DHT22;10600;53.096;8.802;2023-01-28T02:08:38;1.90;99.90
20881;DHT22;10600;53.096;8.802;2023-01-28T02:09:38;1.80;99.90
20881;DHT22;10600;53.096;8.802;2023-01-28T02:10:40;1.80;99.90
20881;DHT22;10600;53.096;8.802;2023-01-28T02:11:41;1.80;99.90
20881;DHT22;10600;53.096;8.802;2023-01-28T02:12:46;1.90;99.90
20881;DHT22;10600;53.096;8.802;2023-01-28T02:13:51;1.80;99.90
20881;DHT22;10600;53.096;8.802;2023-01-28T02:15:09;1.80;99.90
20881;DHT22;10600;53.096;8.802;2023-01-28T02:16:10;1.80;99.90
20881;DHT22;10600;53.096;8.802;2023-01-28T02:17:12;1.80;99.90
20881;DHT22;10600;53.096;8.802;2023-01-28T02:18:13;1.70;99.90
20881;DHT22;10600;53.096;8.802;2023-01-28T02:19:15;1.80;99.90
20881;DHT22;10600;53.096;8.802;2023-01-28T02:20:45;1.70;99.90
20881;DHT22;10600;53.096;8.802;2023-01-28T02:24:34;1.70;99.90
20881;DHT22;10600;53.096;8.802;2023-01-28T02:28:33;1.70;99.90
20881;DHT22;10600;53.096;8.802;2023-01-28T02:32:19;1.70;99.90
20881;DHT22;10600;53.096;8.802;2023-01-28T02:34:01;1.70;99.90
20881;DHT22;10600;53.096;8.802;2023-01-28T02:37:57;1.80;99.90
20881;DHT22;10600;53.096;8.802;2023-01-28T02:39:05;1.70;99.90
20881;DHT22;10600;53.096;8.802;2023-01-28T02:40:12;1.70;99.90
20881;DHT22;10600;53.096;8.802;2023-01-28T02:41:21;1.70;99.90
20881;DHT22;10600;53.096;8.802;2023-01-28T02:42:28;1.80;99.90
20881;DHT22;10600;53.096;8.802;2023-01-28T02:43:44;1.80;99.90
20881;DHT22;10600;53.096;8.802;2023-01-28T02:44:44;1.80;99.90
20881;DHT22;10600;53.096;8.802;2023-01-28T02:45:45;1.80;99.90
20881;DHT22;10600;53.096;8.802;2023-01-28T02:47:12;1.80;99.90
20881;DHT22;10600;53.096;8.802;2023-01-28T02:48:31;1.80;99.90
20881;DHT22;10600;53.096;8.802;2023-01-28T02:49:48;1.80;99.90
20881;DHT22;10600;53.096;8.802;2023-01-28T02:51:13;1.80;99.90
20881;DHT22;10600;53.096;8.802;2023-01-28T02:56:59;1.80;99.90
20881;DHT22;10600;53.096;8.802;2023-01-28T02:58:05;1.70;99.90
20881;DHT22;10600;53.096;8.802;2023-01-28T02:59:23;1.70;99.90
20881;DHT22;10600;53.096;8.802;2023-01-28T03:01:42;1.70;99.90
20881;DHT22;10600;53.096;8.802;2023-01-28T03:02:58;1.70;99.90
20881;DHT22;10600;53.096;8.802;2023-01-28T03:04:29;1.70;99.90
20881;DHT22;10600;53.096;8.802;2023-01-28T03:05:37;1.70;99.90
20881;DHT22;10600;53.096;8.802;2023-01-28T03:06:44;1.70;99.90
20881;DHT22;10600;53.096;8.802;2023-01-28T03:07:46;1.70;99.90
20881;DHT22;10600;53.096;8.802;2023-01-28T03:10:13;1.70;99.90
20881;DHT22;10600;53.096;8.802;2023-01-28T03:11:15;1.70;99.90
20881;DHT22;10600;53.096;8.802;2023-01-28T03:12:36;1.70;99.90
20881;DHT22;10600;53.096;8.802;2023-01-28T03:13:57;1.70;99.90
20881;DHT22;10600;53.096;8.802;2023-01-28T03:15:30;1.70;99.90
20881;DHT22;10600;53.096;8.802;2023-01-28T03:16:52;1.70;99.90
20881;DHT22;10600;53.096;8.802;2023-01-28T03:18:24;1.60;99.90
20881;DHT22;10600;53.096;8.802;2023-01-28T03:19:46;1.60;99.90
20881;DHT22;10600;53.096;8.802;2023-01-28T03:21:19;1.60;99.90
20881;DHT22;10600;53.096;8.802;2023-01-28T03:22:40;1.60;99.90
20881;DHT22;10600;53.096;8.802;2023-01-28T03:24:05;1.60;99.90
20881;DHT22;10600;53.096;8.802;2023-01-28T03:25:27;1.60;99.90
20881;DHT22;10600;53.096;8.802;2023-01-28T03:27:01;1.60;99.90
20881;DHT22;10600;53.096;8.802;2023-01-28T03:28:22;1.60;99.90
20881;DHT22;10600;53.096;8.802;2023-01-28T03:29:43;1.60;99.90
20881;DHT22;10600;53.096;8.802;2023-01-28T03:31:11;1.60;99.90
20881;DHT22;10600;53.096;8.802;2023-01-28T03:32:31;1.60;99.90
20881;DHT22;10600;53.096;8.802;2023-01-28T03:33:52;1.50;99.90
20881;DHT22;10600;53.096;8.802;2023-01-28T03:35:14;1.50;99.90
20881;DHT22;10600;53.096;8.802;2023-01-28T03:36:35;1.60;99.90
20881;DHT22;10600;53.096;8.802;2023-01-28T03:38:10;1.50;99.90
20881;DHT22;10600;53.096;8.802;2023-01-28T03:39:25;1.50;99.90
20881;DHT22;10600;53.096;8.802;2023-01-28T03:40:26;1.50;99.90
20881;DHT22;10600;53.096;8.802;2023-01-28T03:41:27;1.60;99.90
20881;DHT22;10600;53.096;8.802;2023-01-28T03:42:29;1.60;99.90
20881;DHT22;10600;53.096;8.802;2023-01-28T03:43:30;1.60;99.90
20881;DHT22;10600;53.096;8.802;2023-01-28T03:44:31;1.60;99.90
20881;DHT22;10600;53.096;8.802;2023-01-28T03:45:51;1.50;99.90
20881;DHT22;10600;53.096;8.802;2023-01-28T03:46:52;1.50;99.90
20881;DHT22;10600;53.096;8.802;2023-01-28T03:47:52;1.60;99.90
20881;DHT22;10600;53.096;8.802;2023-01-28T03:48:53;1.50;99.90
20881;DHT22;10600;53.096;8.802;2023-01-28T03:49:55;1.50;99.90
20881;DHT22;10600;53.096;8.802;2023-01-28T03:50:56;1.50;99.90
20881;DHT22;10600;53.096;8.802;2023-01-28T03:51:59;1.50;99.90
20881;DHT22;10600;53.096;8.802;2023-01-28T03:53:00;1.50;99.90
20881;DHT22;10600;53.096;8.802;2023-01-28T03:54:11;1.50;99.90
20881;DHT22;10600;53.096;8.802;2023-01-28T03:55:12;1.50;99.90
20881;DHT22;10600;53.096;8.802;2023-01-28T03:56:13;1.50;99.90
20881;DHT22;10600;53.096;8.802;2023-01-28T03:57:24;1.50;99.90
20881;DHT22;10600;53.096;8.802;2023-01-28T03:58:25;1.50;99.90
20881;DHT22;10600;53.096;8.802;2023-01-28T03:59:39;1.50;99.90
20881;DHT22;10600;53.096;8.802;2023-01-28T04:00:41;1.50;99.90
20881;DHT22;10600;53.096;8.802;2023-01-28T04:01:42;1.50;99.90
20881;DHT22;10600;53.096;8.802;2023-01-28T04:02:43;1.50;99.90
20881;DHT22;10600;53.096;8.802;2023-01-28T04:03:43;1.50;99.90
20881;DHT22;10600;53.096;8.802;2023-01-28T04:04:44;1.50;99.90
20881;DHT22;10600;53.096;8.802;2023-01-28T04:05:58;1.50;99.90
20881;DHT22;10600;53.096;8.802;2023-01-28T04:06:59;1.50;99.90
20881;DHT22;10600;53.096;8.802;2023-01-28T04:07:59;1.50;99.90
20881;DHT22;10600;53.096;8.802;2023-01-28T04:09:00;1.40;99.90
20881;DHT22;10600;53.096;8.802;2023-01-28T04:10:01;1.40;99.90
20881;DHT22;10600;53.096;8.802;2023-01-28T04:11:01;1.40;99.90
20881;DHT22;10600;53.096;8.802;2023-01-28T04:12:18;1.40;99.90
20881;DHT22;10600;53.096;8.802;2023-01-28T04:13:19;1.40;99.90
20881;DHT22;10600;53.096;8.802;2023-01-28T04:14:20;1.40;99.90
20881;DHT22;10600;53.096;8.802;2023-01-28T04:15:21;1.40;99.90
20881;DHT22;10600;53.096;8.802;2023-01-28T04:16:23;1.40;99.90
20881;DHT22;10600;53.096;8.802;2023-01-28T04:17:23;1.50;99.90
20881;DHT22;10600;53.096;8.802;2023-01-28T04:18:24;1.50;99.90
20881;DHT22;10600;53.096;8.802;2023-01-28T04:19:27;1.40;99.90
20881;DHT22;10600;53.096;8.802;2023-01-28T04:20:28;1.40;99.90
20881;DHT22;10600;53.096;8.802;2023-01-28T04:21:28;1.40;99.90
20881;DHT22;10600;53.096;8.802;2023-01-28T04:22:29;1.40;99.90
20881;DHT22;10600;53.096;8.802;2023-01-28T04:23:30;1.40;99.90
20881;DHT22;10600;53.096;8.802;2023-01-28T04:24:31;1.40;99.90
20881;DHT22;10600;53.096;8.802;2023-01-28T04:25:31;1.40;99.90
20881;DHT22;10600;53.096;8.802;2023-01-28T04:26:32;1.40;99.90
20881;DHT22;10600;53.096;8.802;2023-01-28T04:27:32;1.40;99.90
20881;DHT22;10600;53.096;8.802;2023-01-28T04:28:33;1.40;99.90
20881;DHT22;10600;53.096;8.802;2023-01-28T04:29:34;1.40;99.90
20881;DHT22;10600;53.096;8.802;2023-01-28T04:30:34;1.40;99.90
20881;DHT22;10600;53.096;8.802;2023-01-28T04:31:35;1.30;99.90
20881;DHT22;10600;53.096;8.802;2023-01-28T04:32:36;1.30;99.90
20881;DHT22;10600;53.096;8.802;2023-01-28T04:33:37;1.30;99.90
20881;DHT22;10600;53.096;8.802;2023-01-28T04:34:37;1.30;99.90
20881;DHT22;10600;53.096;8.802;2023-01-28T04:35:38;1.30;99.90
20881;DHT22;10600;53.096;8.802;2023-01-28T04:36:38;1.30;99.90
20881;DHT22;10600;53.096;8.802;2023-01-28T04:37:42;1.20;99.90
20881;DHT22;10600;53.096;8.802;2023-01-28T04:38:43;1.20;99.90
20881;DHT22;10600;53.096;8.802;2023-01-28T04:39:43;1.20;99.90
20881;DHT22;10600;53.096;8.802;2023-01-28T04:40:47;1.20;99.90
20881;DHT22;10600;53.096;8.802;2023-01-28T04:41:48;1.20;99.90
20881;DHT22;10600;53.096;8.802;2023-01-28T04:42:53;1.10;99.90
20881;DHT22;10600;53.096;8.802;2023-01-28T04:43:53;1.10;99.90
20881;DHT22;10600;53.096;8.802;2023-01-28T04:44:54;1.10;99.90
20881;DHT22;10600;53.096;8.802;2023-01-28T04:45:56;1.10;99.90
20881;DHT22;10600;53.096;8.802;2023-01-28T04:46:56;1.10;99.90
20881;DHT22;10600;53.096;8.802;2023-01-28T04:47:57;1.10;99.90
20881;DHT22;10600;53.096;8.802;2023-01-28T04:48:57;1.10;99.90
20881;DHT22;10600;53.096;8.802;2023-01-28T04:49:58;1.10;99.90
20881;DHT22;10600;53.096;8.802;2023-01-28T04:50:59;1.10;99.90
20881;DHT22;10600;53.096;8.802;2023-01-28T04:52:00;1.10;99.90
20881;DHT22;10600;53.096;8.802;2023-01-28T04:53:00;1.10;99.90
20881;DHT22;10600;53.096;8.802;2023-01-28T04:54:01;1.10;99.90
20881;DHT22;10600;53.096;8.802;2023-01-28T04:55:02;1.10;99.90
20881;DHT22;10600;53.096;8.802;2023-01-28T04:56:03;1.10;99.90
20881;DHT22;10600;53.096;8.802;2023-01-28T04:57:04;1.10;99.90
20881;DHT22;10600;53.096;8.802;2023-01-28T04:58:04;1.20;99.90
20881;DHT22;10600;53.096;8.802;2023-01-28T04:59:05;1.20;99.90
20881;DHT22;10600;53.096;8.802;2023-01-28T05:00:06;1.20;99.90
20881;DHT22;10600;53.096;8.802;2023-01-28T05:01:07;1.10;99.90
20881;DHT22;10600;53.096;8.802;2023-01-28T05:02:07;1.10;99.90
20881;DHT22;10600;53.096;8.802;2023-01-28T05:03:08;1.10;99.90
20881;DHT22;10600;53.096;8.802;2023-01-28T05:04:08;1.10;99.90
20881;DHT22;10600;53.096;8.802;2023-01-28T05:05:09;1.10;99.90
20881;DHT22;10600;53.096;8.802;2023-01-28T05:06:10;1.10;99.90
20881;DHT22;10600;53.096;8.802;2023-01-28T05:07:11;1.10;99.90
20881;DHT22;10600;53.096;8.802;2023-01-28T05:08:11;1.10;99.90
20881;DHT22;10600;53.096;8.802;2023-01-28T05:09:12;1.10;99.90
20881;DHT22;10600;53.096;8.802;2023-01-28T05:10:12;1.10;99.90
20881;DHT22;10600;53.096;8.802;2023-01-28T05:11:13;1.00;99.90
20881;DHT22;10600;53.096;8.802;2023-01-28T05:12:14;1.10;99.90
20881;DHT22;10600;53.096;8.802;2023-01-28T05:13:15;1.00;99.90
20881;DHT22;10600;53.096;8.802;2023-01-28T05:14:15;1.00;99.90
20881;DHT22;10600;53.096;8.802;2023-01-28T05:15:17;1.00;99.90
20881;DHT22;10600;53.096;8.802;2023-01-28T05:16:18;1.00;99.90
20881;DHT22;10600;53.096;8.802;2023-01-28T05:17:19;1.00;99.90
20881;DHT22;10600;53.096;8.802;2023-01-28T05:18:19;1.00;99.90
20881;DHT22;10600;53.096;8.802;2023-01-28T05:19:20;1.00;99.90
20881;DHT22;10600;53.096;8.802;2023-01-28T05:20:21;1.00;99.90
20881;DHT22;10600;53.096;8.802;2023-01-28T05:21:21;0.90;99.90
20881;DHT22;10600;53.096;8.802;2023-01-28T05:22:22;0.90;99.90
20881;DHT22;10600;53.096;8.802;2023-01-28T05:23:23;0.90;99.90
20881;DHT22;10600;53.096;8.802;2023-01-28T05:24:23;0.90;99.90
20881;DHT22;10600;53.096;8.802;2023-01-28T05:25:24;0.90;99.90
20881;DHT22;10600;53.096;8.802;2023-01-28T05:26:26;0.90;99.90
20881;DHT22;10600;53.096;8.802;2023-01-28T05:27:27;0.90;99.90
20881;DHT22;10600;53.096;8.802;2023-01-28T05:28:28;0.90;99.90
20881;DHT22;10600;53.096;8.802;2023-01-28T05:29:28;0.90;99.90
20881;DHT22;10600;53.096;8.802;2023-01-28T05:30:29;0.90;99.90
20881;DHT22;10600;53.096;8.802;2023-01-28T05:31:30;0.90;99.90
20881;DHT22;10600;53.096;8.802;2023-01-28T05:32:30;0.90;99.90
20881;DHT22;10600;53.096;8.802;2023-01-28T05:33:31;1.00;99.90
20881;DHT22;10600;53.096;8.802;2023-01-28T05:34:32;0.90;99.90
20881;DHT22;10600;53.096;8.802;2023-01-28T05:35:33;1.00;99.90
20881;DHT22;10600;53.096;8.802;2023-01-28T05:36:33;1.00;99.90
20881;DHT22;10600;53.096;8.802;2023-01-28T05:37:34;1.00;99.90
20881;DHT22;10600;53.096;8.802;2023-01-28T05:38:34;1.00;99.90
20881;DHT22;10600;53.096;8.802;2023-01-28T05:39:35;1.00;99.90
20881;DHT22;10600;53.096;8.802;2023-01-28T05:40:36;1.00;99.90
20881;DHT22;10600;53.096;8.802;2023-01-28T05:41:36;1.00;99.90
20881;DHT22;10600;53.096;8.802;2023-01-28T05:42:37;1.00;99.90
20881;DHT22;10600;53.096;8.802;2023-01-28T05:43:38;1.00;99.90
20881;DHT22;10600;53.096;8.802;2023-01-28T05:44:38;1.00;99.90
20881;DHT22;10600;53.096;8.802;2023-01-28T05:45:39;1.00;99.90
20881;DHT22;10600;53.096;8.802;2023-01-28T05:46:40;1.00;99.90
20881;DHT22;10600;53.096;8.802;2023-01-28T05:47:44;1.00;99.90
20881;DHT22;10600;53.096;8.802;2023-01-28T05:48:45;1.00;99.90
20881;DHT22;10600;53.096;8.802;2023-01-28T05:49:45;1.00;99.90
20881;DHT22;10600;53.096;8.802;2023-01-28T05:50:46;1.00;99.90
20881;DHT22;10600;53.096;8.802;2023-01-28T05:51:47;1.00;99.90
20881;DHT22;10600;53.096;8.802;2023-01-28T05:52:48;1.00;99.90
20881;DHT22;10600;53.096;8.802;2023-01-28T05:53:48;1.00;99.90
20881;DHT22;10600;53.096;8.802;2023-01-28T05:54:49;1.00;99.90
20881;DHT22;10600;53.096;8.802;2023-01-28T05:55:51;0.90;99.90
20881;DHT22;10600;53.096;8.802;2023-01-28T05:56:53;1.00;99.90
20881;DHT22;10600;53.096;8.802;2023-01-28T05:57:53;0.90;99.90
20881;DHT22;10600;53.096;8.802;2023-01-28T05:58:54;0.90;99.90
20881;DHT22;10600;53.096;8.802;2023-01-28T05:59:54;0.90;99.90
20881;DHT22;10600;53.096;8.802;2023-01-28T06:00:55;0.90;99.90
20881;DHT22;10600;53.096;8.802;2023-01-28T06:01:56;0.90;99.90
20881;DHT22;10600;53.096;8.802;2023-01-28T06:02:56;0.90;99.90
20881;DHT22;10600;53.096;8.802;2023-01-28T06:03:57;0.80;99.90
20881;DHT22;10600;53.096;8.802;2023-01-28T06:04:59;0.80;99.90
20881;DHT22;10600;53.096;8.802;2023-01-28T06:05:59;0.90;99.90
20881;DHT22;10600;53.096;8.802;2023-01-28T06:07:00;0.80;99.90
20881;DHT22;10600;53.096;8.802;2023-01-28T06:08:01;0.80;99.90
20881;DHT22;10600;53.096;8.802;2023-01-28T06:09:01;0.80;99.90
20881;DHT22;10600;53.096;8.802;2023-01-28T06:10:02;0.80;99.90
20881;DHT22;10600;53.096;8.802;2023-01-28T06:11:03;0.80;99.90
20881;DHT22;10600;53.096;8.802;2023-01-28T06:12:04;0.70;99.90
20881;DHT22;10600;53.096;8.802;2023-01-28T06:13:05;0.80;99.90
20881;DHT22;10600;53.096;8.802;2023-01-28T06:14:05;0.70;99.90
20881;DHT22;10600;53.096;8.802;2023-01-28T06:15:06;0.70;99.90
20881;DHT22;10600;53.096;8.802;2023-01-28T06:16:07;0.70;99.90
20881;DHT22;10600;53.096;8.802;2023-01-28T06:17:08;0.60;99.90
20881;DHT22;10600;53.096;8.802;2023-01-28T06:18:08;0.60;99.90
20881;DHT22;10600;53.096;8.802;2023-01-28T06:19:09;0.60;99.90
20881;DHT22;10600;53.096;8.802;2023-01-28T06:20:10;0.60;99.90
20881;DHT22;10600;53.096;8.802;2023-01-28T06:21:12;0.50;99.90
20881;DHT22;10600;53.096;8.802;2023-01-28T06:22:13;0.50;99.90
20881;DHT22;10600;53.096;8.802;2023-01-28T06:23:13;0.50;99.90
20881;DHT22;10600;53.096;8.802;2023-01-28T06:24:14;0.50;99.90
20881;DHT22;10600;53.096;8.802;2023-01-28T06:25:15;0.50;99.90
20881;DHT22;10600;53.096;8.802;2023-01-28T06:26:15;0.40;99.90
20881;DHT22;10600;53.096;8.802;2023-01-28T06:27:16;0.40;99.90
20881;DHT22;10600;53.096;8.802;2023-01-28T06:28:17;0.40;99.90
20881;DHT22;10600;53.096;8.802;2023-01-28T06:29:17;0.30;99.90
20881;DHT22;10600;53.096;8.802;2023-01-28T06:30:18;0.30;99.90
20881;DHT22;10600;53.096;8.802;2023-01-28T06:31:19;0.30;99.90
20881;DHT22;10600;53.096;8.802;2023-01-28T06:32:20;0.30;99.90
20881;DHT22;10600;53.096;8.802;2023-01-28T06:33:21;0.20;99.90
20881;DHT22;10600;53.096;8.802;2023-01-28T06:34:23;0.20;99.90
20881;DHT22;10600;53.096;8.802;2023-01-28T06:35:24;0.20;99.90
20881;DHT22;10600;53.096;8.802;2023-01-28T06:36:24;0.10;99.90
20881;DHT22;10600;53.096;8.802;2023-01-28T06:37:25;0.10;99.90
20881;DHT22;10600;53.096;8.802;2023-01-28T06:38:26;0.10;99.90
20881;DHT22;10600;53.096;8.802;2023-01-28T06:39:26;0.10;99.90
20881;DHT22;10600;53.096;8.802;2023-01-28T06:40:31;0.00;99.90
20881;DHT22;10600;53.096;8.802;2023-01-28T06:41:31;0.00;99.90
20881;DHT22;10600;53.096;8.802;2023-01-28T06:42:32;-0.10;99.90
20881;DHT22;10600;53.096;8.802;2023-01-28T06:43:33;-0.10;99.90
20881;DHT22;10600;53.096;8.802;2023-01-28T06:44:33;-0.10;99.90
20881;DHT22;10600;53.096;8.802;2023-01-28T06:45:34;-0.10;99.90
20881;DHT22;10600;53.096;8.802;2023-01-28T06:46:35;-0.10;99.90
20881;DHT22;10600;53.096;8.802;2023-01-28T06:47:38;-0.20;99.90
20881;DHT22;10600;53.096;8.802;2023-01-28T06:48:39;-0.20;99.90
20881;DHT22;10600;53.096;8.802;2023-01-28T06:49:39;-0.20;99.90
20881;DHT22;10600;53.096;8.802;2023-01-28T06:50:40;-0.20;99.90
20881;DHT22;10600;53.096;8.802;2023-01-28T06:51:41;-0.20;99.90
20881;DHT22;10600;53.096;8.802;2023-01-28T06:52:41;-0.30;99.90
20881;DHT22;10600;53.096;8.802;2023-01-28T06:53:42;-0.30;99.90
20881;DHT22;10600;53.096;8.802;2023-01-28T06:54:43;-0.30;99.90
20881;DHT22;10600;53.096;8.802;2023-01-28T06:55:43;-0.40;99.90
20881;DHT22;10600;53.096;8.802;2023-01-28T06:56:44;-0.40;99.90
20881;DHT22;10600;53.096;8.802;2023-01-28T06:57:45;-0.50;99.90
20881;DHT22;10600;53.096;8.802;2023-01-28T06:58:45;-0.50;99.90
20881;DHT22;10600;53.096;8.802;2023-01-28T06:59:46;-0.50;99.90
20881;DHT22;10600;53.096;8.802;2023-01-28T07:00:47;-0.60;99.90
20881;DHT22;10600;53.096;8.802;2023-01-28T07:01:47;-0.60;99.90
20881;DHT22;10600;53.096;8.802;2023-01-28T07:02:48;-0.60;99.90
20881;DHT22;10600;53.096;8.802;2023-01-28T07:03:48;-0.60;99.90
20881;DHT22;10600;53.096;8.802;2023-01-28T07:04:49;-0.60;99.90
20881;DHT22;10600;53.096;8.802;2023-01-28T07:05:50;-0.60;99.90
20881;DHT22;10600;53.096;8.802;2023-01-28T07:06:50;-0.70;99.90
20881;DHT22;10600;53.096;8.802;2023-01-28T07:07:51;-0.70;99.90
20881;DHT22;10600;53.096;8.802;2023-01-28T07:08:51;-0.70;99.90